createdAt,value
2018-01-26T00:01:03.367Z,4.55
2018-01-26T00:03:30.928Z,4.47
2018-01-26T00:05:58.484Z,5.45
2018-01-26T00:08:26.057Z,5.37
2018-01-26T00:10:53.592Z,3.75
2018-01-26T00:13:21.890Z,5.35
2018-01-26T00:15:49.461Z,4.18
2018-01-26T00:18:17.023Z,4.60
2018-01-26T00:20:44.603Z,5.70
2018-01-26T00:23:12.154Z,3.95
2018-01-26T00:25:39.726Z,4.07
2018-01-26T00:28:07.274Z,4.10
2018-01-26T00:30:34.851Z,4.40
2018-01-26T00:33:02.415Z,3.65
2018-01-26T00:35:29.974Z,4.45
2018-01-26T00:37:57.535Z,3.95
2018-01-26T00:40:25.090Z,4.25
2018-01-26T00:42:52.675Z,4.90
2018-01-26T00:45:20.999Z,3.40
2018-01-26T00:47:48.550Z,3.92
2018-01-26T00:50:16.115Z,3.92
2018-01-26T00:52:43.669Z,3.97
2018-01-26T00:55:11.222Z,3.83
2018-01-26T00:57:38.789Z,4.10
2018-01-26T01:00:06.352Z,3.58
2018-01-26T01:02:33.906Z,4.15
2018-01-26T01:05:01.481Z,3.62
2018-01-26T01:07:29.026Z,3.12
2018-01-26T01:09:56.593Z,3.80
2018-01-26T01:12:24.148Z,3.78
2018-01-26T01:14:51.727Z,4.15
2018-01-26T01:17:19.268Z,4.72
2018-01-26T01:19:46.824Z,3.45
2018-01-26T01:22:14.358Z,3.70
2018-01-26T01:24:41.915Z,3.53
2018-01-26T01:27:10.225Z,4.40
2018-01-26T01:29:37.768Z,3.50
2018-01-26T01:32:05.322Z,3.90
2018-01-26T01:34:32.869Z,3.65
2018-01-26T01:37:00.447Z,4.15
2018-01-26T01:39:27.983Z,3.35
2018-01-26T01:41:56.300Z,3.75
2018-01-26T01:44:23.850Z,3.75
2018-01-26T01:46:51.425Z,3.80
2018-01-26T01:49:18.968Z,3.80
2018-01-26T01:51:46.517Z,3.97
2018-01-26T01:54:14.094Z,3.03
2018-01-26T01:56:41.626Z,3.65
2018-01-26T01:59:09.193Z,4.20
2018-01-26T02:01:36.727Z,3.67
2018-01-26T02:04:05.046Z,3.72
2018-01-26T02:06:32.597Z,3.45
2018-01-26T02:09:00.160Z,4.12
2018-01-26T02:11:27.708Z,3.62
2018-01-26T02:13:55.281Z,3.35
2018-01-26T02:16:22.814Z,3.67
2018-01-26T02:18:51.129Z,2.80
2018-01-26T02:21:18.719Z,3.55
2018-01-26T02:23:46.279Z,4.25
2018-01-26T02:26:13.825Z,3.80
2018-01-26T02:28:41.410Z,3.92
2018-01-26T02:31:09.721Z,4.12
2018-01-26T02:33:37.283Z,3.15
2018-01-26T02:36:04.855Z,3.87
2018-01-26T02:38:32.415Z,3.35
2018-01-26T02:40:59.960Z,4.15
2018-01-26T02:43:27.543Z,3.50
2018-01-26T02:45:55.098Z,3.20
2018-01-26T02:48:22.647Z,3.08
2018-01-26T02:50:50.209Z,3.30
2018-01-26T02:53:17.761Z,3.75
2018-01-26T02:55:45.300Z,3.17
2018-01-26T02:58:12.887Z,3.55
2018-01-26T03:00:40.442Z,3.47
2018-01-26T03:03:07.994Z,3.22
2018-01-26T03:05:35.608Z,3.20
2018-01-26T03:08:03.171Z,2.58
2018-01-26T03:10:30.706Z,2.87
2018-01-26T03:12:58.270Z,3.17
2018-01-26T03:15:25.833Z,3.10
2018-01-26T03:17:53.382Z,3.05
2018-01-26T03:20:20.954Z,3.22
2018-01-26T03:22:48.505Z,3.15
2018-01-26T03:25:16.077Z,3.22
2018-01-26T03:27:43.611Z,2.92
2018-01-26T03:30:11.160Z,2.97
2018-01-26T03:32:38.739Z,2.70
2018-01-26T03:35:06.289Z,2.70
2018-01-26T03:37:33.843Z,2.72
2018-01-26T03:40:01.375Z,2.75
2018-01-26T03:42:29.700Z,2.75
2018-01-26T03:44:57.240Z,4.05
2018-01-26T03:47:24.819Z,2.87
2018-01-26T03:49:52.354Z,3.10
2018-01-26T03:55:12.875Z,2.87
2018-01-26T03:57:40.449Z,2.78
2018-01-26T04:00:07.992Z,2.15
2018-01-26T04:02:35.553Z,2.05
2018-01-26T04:05:03.107Z,2.45
2018-01-26T04:07:30.669Z,2.80
2018-01-26T04:09:58.223Z,3.08
2018-01-26T04:12:25.784Z,2.62
2018-01-26T04:14:53.349Z,2.80
2018-01-26T04:17:20.892Z,2.60
2018-01-26T04:19:48.455Z,2.20
2018-01-26T04:22:16.021Z,2.55
2018-01-26T04:24:43.569Z,2.87
2018-01-26T04:27:11.133Z,2.28
2018-01-26T04:29:38.688Z,2.42
2018-01-26T04:32:06.266Z,1.95
2018-01-26T04:34:33.835Z,2.60
2018-01-26T04:37:01.402Z,2.95
2018-01-26T04:39:28.945Z,2.40
2018-01-26T04:41:56.528Z,2.83
2018-01-26T04:44:24.067Z,2.47
2018-01-26T04:46:51.617Z,2.42
2018-01-26T04:49:19.181Z,2.33
2018-01-26T04:51:46.754Z,2.20
2018-01-26T04:54:14.325Z,2.42
2018-01-26T04:56:41.887Z,2.90
2018-01-26T04:59:09.448Z,1.80
2018-01-26T05:01:37.001Z,2.05
2018-01-26T05:04:04.589Z,2.50
2018-01-26T05:06:32.911Z,2.20
2018-01-26T05:09:00.472Z,2.22
2018-01-26T05:11:28.023Z,2.08
2018-01-26T05:13:55.559Z,2.10
2018-01-26T05:16:23.891Z,2.60
2018-01-26T05:18:51.442Z,2.53
2018-01-26T05:21:19.004Z,2.15
2018-01-26T05:23:46.568Z,2.05
2018-01-26T05:26:14.127Z,2.00
2018-01-26T05:28:41.672Z,2.10
2018-01-26T05:31:09.223Z,2.50
2018-01-26T05:33:36.790Z,2.53
2018-01-26T05:36:04.336Z,2.35
2018-01-26T05:38:31.903Z,1.70
2018-01-26T05:40:59.448Z,2.00
2018-01-26T05:43:27.021Z,2.05
2018-01-26T05:45:54.555Z,1.92
2018-01-26T05:48:22.119Z,2.10
2018-01-26T05:50:49.665Z,2.22
2018-01-26T05:53:17.991Z,1.87
2018-01-26T05:55:45.557Z,2.37
2018-01-26T05:58:13.091Z,2.30
2018-01-26T06:00:40.655Z,2.15
2018-01-26T06:03:08.217Z,2.25
2018-01-26T06:05:35.853Z,2.17
2018-01-26T06:08:03.390Z,2.67
2018-01-26T06:10:31.739Z,2.20
2018-01-26T06:12:59.301Z,2.65
2018-01-26T06:15:26.852Z,2.20
2018-01-26T06:17:54.438Z,2.45
2018-01-26T06:20:21.988Z,3.17
2018-01-26T06:22:49.543Z,2.55
2018-01-26T06:25:17.087Z,2.67
2018-01-26T06:27:44.673Z,2.78
2018-01-26T06:30:12.230Z,2.97
2018-01-26T06:32:39.782Z,2.80
2018-01-26T06:35:07.343Z,2.92
2018-01-26T06:37:34.921Z,3.33
2018-01-26T06:40:03.247Z,3.10
2018-01-26T06:42:30.815Z,2.85
2018-01-26T06:44:58.380Z,3.83
2018-01-26T06:47:25.946Z,2.67
2018-01-26T06:49:53.527Z,3.78
2018-01-26T06:52:21.100Z,2.60
2018-01-26T06:54:49.417Z,2.50
2018-01-26T06:57:16.959Z,2.15
2018-01-26T06:59:44.539Z,3.30
2018-01-26T07:02:12.089Z,2.50
2018-01-26T07:04:39.660Z,3.00
2018-01-26T07:07:07.239Z,3.03
2018-01-26T07:09:34.778Z,2.95
2018-01-26T07:12:02.337Z,2.80
2018-01-26T07:14:29.899Z,2.87
2018-01-26T07:16:57.479Z,2.70
2018-01-26T07:19:25.019Z,2.17
2018-01-26T07:21:52.582Z,3.37
2018-01-26T07:24:20.138Z,2.97
2018-01-26T07:26:47.699Z,3.20
2018-01-26T07:29:15.257Z,3.28
2018-01-26T07:31:42.865Z,3.03
2018-01-26T07:34:11.205Z,3.47
2018-01-26T07:36:38.766Z,3.83
2018-01-26T07:39:06.646Z,3.10
2018-01-26T07:41:34.179Z,3.10
2018-01-26T07:44:01.745Z,3.12
2018-01-26T07:46:29.299Z,3.17
2018-01-26T07:48:56.864Z,3.58
2018-01-26T07:51:24.421Z,3.17
2018-01-26T07:53:52.113Z,2.70
2018-01-26T07:56:19.686Z,3.03
2018-01-26T07:58:47.248Z,3.55
2018-01-26T08:01:15.602Z,2.87
2018-01-26T08:03:43.168Z,3.50
2018-01-26T08:06:10.725Z,3.45
2018-01-26T08:08:38.304Z,2.15
2018-01-26T08:11:06.653Z,2.62
2018-01-26T08:13:34.220Z,2.78
2018-01-26T08:16:01.788Z,2.47
2018-01-26T08:18:29.366Z,2.62
2018-01-26T08:20:57.680Z,2.35
2018-01-26T08:23:25.252Z,2.60
2018-01-26T08:25:52.788Z,3.70
2018-01-26T08:28:20.358Z,3.08
2018-01-26T08:30:47.923Z,2.42
2018-01-26T08:33:15.479Z,3.20
2018-01-26T08:35:43.038Z,3.58
2018-01-26T08:38:10.607Z,3.20
2018-01-26T08:40:38.153Z,3.72
2018-01-26T08:43:05.718Z,4.22
2018-01-26T08:45:33.289Z,4.10
2018-01-26T08:48:00.823Z,4.57
2018-01-26T08:50:28.405Z,4.55
2018-01-26T08:52:55.942Z,5.07
2018-01-26T08:55:25.423Z,4.95
2018-01-26T08:57:53.730Z,5.68
2018-01-26T09:00:21.287Z,6.40
2018-01-26T09:02:48.844Z,6.05
2018-01-26T09:05:16.380Z,5.15
2018-01-26T09:07:46.152Z,5.37
2018-01-26T09:10:13.710Z,5.20
2018-01-26T09:12:41.269Z,5.15
2018-01-26T09:15:08.813Z,5.85
2018-01-26T09:17:36.385Z,5.60
2018-01-26T09:20:03.919Z,5.47
2018-01-26T09:22:31.481Z,5.47
2018-01-26T09:24:59.043Z,5.35
2018-01-26T09:27:26.612Z,4.78
2018-01-26T09:29:54.191Z,4.32
2018-01-26T09:32:21.730Z,5.03
2018-01-26T09:34:49.279Z,4.35
2018-01-26T09:37:16.821Z,5.93
2018-01-26T09:39:44.404Z,5.20
2018-01-26T09:42:12.785Z,4.40
2018-01-26T09:44:40.334Z,5.25
2018-01-26T09:47:07.877Z,3.58
2018-01-26T09:49:35.449Z,4.12
2018-01-26T09:52:02.987Z,3.87
2018-01-26T09:54:31.310Z,4.82
2018-01-26T09:56:58.883Z,5.12
2018-01-26T09:59:26.433Z,3.97
2018-01-26T10:01:54.002Z,4.90
2018-01-26T10:04:21.539Z,4.47
2018-01-26T10:06:49.091Z,4.10
2018-01-26T10:09:16.652Z,4.93
2018-01-26T10:11:44.206Z,5.00
2018-01-26T10:14:11.758Z,5.28
2018-01-26T10:16:39.329Z,5.57
2018-01-26T10:19:06.925Z,5.22
2018-01-26T10:21:34.457Z,5.18
2018-01-26T10:24:02.012Z,5.25
2018-01-26T10:26:29.550Z,4.57
2018-01-26T10:28:57.108Z,4.30
2018-01-26T10:31:24.672Z,4.95
2018-01-26T10:33:52.259Z,4.53
2018-01-26T10:36:19.817Z,4.87
2018-01-26T10:38:47.374Z,3.92
2018-01-26T10:41:14.917Z,5.10
2018-01-26T10:43:42.473Z,4.30
2018-01-26T10:46:10.061Z,4.43
2018-01-26T10:48:37.607Z,4.70
2018-01-26T10:51:05.161Z,4.10
2018-01-26T10:53:32.694Z,4.40
2018-01-26T10:56:01.017Z,3.95
2018-01-26T10:58:28.551Z,4.50
2018-01-26T11:00:56.103Z,3.95
2018-01-26T11:03:23.652Z,3.65
2018-01-26T11:05:51.211Z,4.25
2018-01-26T11:08:19.530Z,3.83
2018-01-26T11:10:47.092Z,4.78
2018-01-26T11:13:14.670Z,5.95
2018-01-26T11:15:42.239Z,5.30
2018-01-26T11:18:09.809Z,4.80
2018-01-26T11:20:38.139Z,3.62
2018-01-26T11:23:05.705Z,4.28
2018-01-26T11:25:33.271Z,3.25
2018-01-26T11:28:00.827Z,2.92
2018-01-26T11:30:28.377Z,3.03
2018-01-26T11:32:55.919Z,2.20
2018-01-26T11:35:23.478Z,2.05
2018-01-26T11:37:51.019Z,2.10
2018-01-26T11:40:18.593Z,2.05
2018-01-26T11:42:46.161Z,1.97
2018-01-26T11:45:13.743Z,1.73
2018-01-26T11:47:41.297Z,1.63
2018-01-26T11:50:08.851Z,1.60
2018-01-26T11:52:36.401Z,2.00
2018-01-26T11:55:03.960Z,2.20
2018-01-26T11:57:31.513Z,2.20
2018-01-26T11:59:59.074Z,3.07
2018-01-26T12:02:26.644Z,2.37
2018-01-26T12:04:54.199Z,3.27
2018-01-26T12:07:21.769Z,2.77
2018-01-26T12:09:49.335Z,2.90
2018-01-26T12:12:16.916Z,2.33
2018-01-26T12:14:44.481Z,2.63
2018-01-26T12:17:12.062Z,2.13
2018-01-26T12:19:40.397Z,2.47
2018-01-26T12:22:07.952Z,2.40
2018-01-26T12:24:35.519Z,2.43
2018-01-26T12:27:03.073Z,2.93
2018-01-26T12:29:30.641Z,3.03
2018-01-26T12:31:58.230Z,3.27
2018-01-26T12:34:26.587Z,2.77
2018-01-26T12:36:54.143Z,2.23
2018-01-26T12:39:21.717Z,2.20
2018-01-26T12:41:49.268Z,1.97
2018-01-26T12:44:16.849Z,2.53
2018-01-26T12:46:45.161Z,2.70
2018-01-26T12:49:12.729Z,2.93
2018-01-26T12:51:40.319Z,3.27
2018-01-26T12:54:07.892Z,3.10
2018-01-26T12:56:35.464Z,2.90
2018-01-26T12:59:03.788Z,3.00
2018-01-26T13:01:31.353Z,1.87
2018-01-26T13:03:58.927Z,2.50
2018-01-26T13:06:26.510Z,2.13
2018-01-26T13:08:54.051Z,2.20
2018-01-26T13:11:21.609Z,1.90
2018-01-26T13:13:49.185Z,1.93
2018-01-26T13:16:16.745Z,1.70
2018-01-26T13:18:44.331Z,1.67
2018-01-26T13:21:12.639Z,2.00
2018-01-26T13:23:40.210Z,2.20
2018-01-26T13:26:07.769Z,1.70
2018-01-26T13:28:35.322Z,2.07
2018-01-26T13:31:02.895Z,2.87
2018-01-26T13:33:30.467Z,2.70
2018-01-26T13:35:58.038Z,2.50
2018-01-26T13:38:25.616Z,2.70
2018-01-26T13:40:53.938Z,2.10
2018-01-26T13:43:21.500Z,2.10
2018-01-26T13:45:49.066Z,2.30
2018-01-26T13:48:16.625Z,2.30
2018-01-26T13:50:44.197Z,2.40
2018-01-26T13:53:11.766Z,1.57
2018-01-26T13:55:39.330Z,2.20
2018-01-26T13:58:06.879Z,2.23
2018-01-26T14:00:34.475Z,2.20
2018-01-26T14:03:02.818Z,1.70
2018-01-26T14:05:30.391Z,1.73
2018-01-26T14:07:59.463Z,1.83
2018-01-26T14:10:26.998Z,1.90
2018-01-26T14:12:54.587Z,1.77
2018-01-26T14:15:22.160Z,1.73
2018-01-26T14:17:49.800Z,2.07
2018-01-26T14:20:17.362Z,1.90
2018-01-26T14:22:44.997Z,1.50
2018-01-26T14:25:12.565Z,2.40
2018-01-26T14:27:40.135Z,2.27
2018-01-26T14:30:07.696Z,1.97
2018-01-26T14:32:35.260Z,2.23
2018-01-26T14:35:02.825Z,2.23
2018-01-26T14:37:30.385Z,2.00
2018-01-26T14:39:57.979Z,1.87
2018-01-26T14:42:26.322Z,1.97
2018-01-26T14:44:53.967Z,2.50
2018-01-26T14:47:21.513Z,3.20
2018-01-26T14:49:49.068Z,2.30
2018-01-26T14:52:16.626Z,2.43
2018-01-26T14:54:44.173Z,1.70
2018-01-26T14:57:11.727Z,2.67
2018-01-26T14:59:40.041Z,2.50
2018-01-26T15:02:07.649Z,2.20
2018-01-26T15:04:35.981Z,2.60
2018-01-26T15:07:03.562Z,2.30
2018-01-26T15:09:31.103Z,2.90
2018-01-26T15:11:58.646Z,3.20
2018-01-26T15:14:26.268Z,3.17
2018-01-26T15:16:54.601Z,3.17
2018-01-26T15:19:22.204Z,2.25
2018-01-26T15:21:50.538Z,2.83
2018-01-26T15:24:18.124Z,2.75
2018-01-26T15:26:45.699Z,1.95
2018-01-26T15:29:13.269Z,2.37
2018-01-26T15:31:41.597Z,2.42
2018-01-26T15:34:09.166Z,2.28
2018-01-26T15:36:36.730Z,2.85
2018-01-26T15:39:04.303Z,4.03
2018-01-26T15:41:31.888Z,3.80
2018-01-26T15:44:00.214Z,3.25
2018-01-26T15:46:27.795Z,3.40
2018-01-26T15:48:55.357Z,3.50
2018-01-26T15:51:23.127Z,3.35
2018-01-26T15:53:50.677Z,4.10
2018-01-26T15:56:18.245Z,3.80
2018-01-26T15:58:45.783Z,3.15
2018-01-26T16:01:13.328Z,3.05
2018-01-26T16:03:40.913Z,3.35
2018-01-26T16:06:08.550Z,4.18
2018-01-26T16:08:36.214Z,3.90
2018-01-26T16:11:03.772Z,3.28
2018-01-26T16:13:31.332Z,3.60
2018-01-26T16:16:03.902Z,2.95
2018-01-26T16:18:31.455Z,3.05
2018-01-26T16:20:59.759Z,2.40
2018-01-26T16:23:27.351Z,3.47
2018-01-26T16:25:54.908Z,3.50
2018-01-26T16:28:23.229Z,2.85
2018-01-26T16:30:50.795Z,2.85
2018-01-26T16:33:19.151Z,3.30
2018-01-26T16:35:47.475Z,3.08
2018-01-26T16:38:15.022Z,2.78
2018-01-26T16:40:42.584Z,2.62
2018-01-26T16:43:10.151Z,2.42
2018-01-26T16:45:37.725Z,2.70
2018-01-26T16:48:05.288Z,2.95
2018-01-26T16:50:32.842Z,1.90
2018-01-26T16:53:00.405Z,1.70
2018-01-26T16:55:27.948Z,2.12
2018-01-26T16:57:55.527Z,1.60
2018-01-26T17:00:23.092Z,2.10
2018-01-26T17:02:50.661Z,2.50
2018-01-26T17:05:18.213Z,2.15
2018-01-26T17:07:45.770Z,2.20
2018-01-26T17:10:13.332Z,2.00
2018-01-26T17:12:40.898Z,2.33
2018-01-26T17:15:08.471Z,2.20
2018-01-26T17:17:36.785Z,1.95
2018-01-26T17:20:04.357Z,2.33
2018-01-26T17:22:31.891Z,1.83
2018-01-26T17:24:59.443Z,1.83
2018-01-26T17:27:27.003Z,3.12
2018-01-26T17:29:54.572Z,3.85
2018-01-26T17:32:22.165Z,2.53
2018-01-26T17:34:49.680Z,3.70
2018-01-26T17:37:17.242Z,4.03
2018-01-26T17:39:44.780Z,5.20
2018-01-26T17:42:13.123Z,7.03
2018-01-26T17:44:40.681Z,5.53
2018-01-26T17:47:08.258Z,6.62
2018-01-26T17:49:35.823Z,7.53
2018-01-26T17:52:03.389Z,7.93
2018-01-26T17:54:31.699Z,6.45
2018-01-26T17:56:59.277Z,7.45
2018-01-26T17:59:26.839Z,8.65
2018-01-26T18:01:54.388Z,8.15
2018-01-26T18:04:21.951Z,9.48
2018-01-26T18:06:49.491Z,9.80
2018-01-26T18:09:17.065Z,9.55
2018-01-26T18:11:44.628Z,9.00
2018-01-26T18:14:13.001Z,10.07
2018-01-26T18:16:40.563Z,7.65
2018-01-26T18:19:08.859Z,8.00
2018-01-26T18:21:36.400Z,7.15
2018-01-26T18:24:03.948Z,6.25
2018-01-26T18:26:31.556Z,6.70
2018-01-26T18:28:59.085Z,6.35
2018-01-26T18:31:26.653Z,7.60
2018-01-26T18:33:54.251Z,7.93
2018-01-26T18:36:21.810Z,8.80
2018-01-26T18:38:49.347Z,8.32
2018-01-26T18:41:16.908Z,6.65
2018-01-26T18:43:44.458Z,10.43
2018-01-26T18:46:12.035Z,8.85
2018-01-26T18:48:39.609Z,8.25
2018-01-26T18:51:07.150Z,9.77
2018-01-26T18:53:34.716Z,10.48
2018-01-26T18:56:02.281Z,9.93
2018-01-26T18:58:29.861Z,9.80
2018-01-26T19:00:58.198Z,11.20
2018-01-26T19:03:25.799Z,9.05
2018-01-26T19:05:54.113Z,9.40
2018-01-26T19:08:21.689Z,8.73
2018-01-26T19:10:49.236Z,9.60
2018-01-26T19:13:18.136Z,8.07
2018-01-26T19:15:46.533Z,7.93
2018-01-26T19:18:14.067Z,7.15
2018-01-26T19:20:41.642Z,8.40
2018-01-26T19:23:09.231Z,7.95
2018-01-26T19:25:36.801Z,7.85
2018-01-26T19:28:05.151Z,7.95
2018-01-26T19:30:32.709Z,10.45
2018-01-26T19:33:00.277Z,10.27
2018-01-26T19:35:27.837Z,7.85
2018-01-26T19:37:55.395Z,9.40
2018-01-26T19:40:22.940Z,8.43
2018-01-26T19:42:50.619Z,9.10
2018-01-26T19:45:18.178Z,8.40
2018-01-26T19:47:45.755Z,6.70
2018-01-26T19:50:14.069Z,9.02
2018-01-26T19:52:41.659Z,7.97
2018-01-26T19:55:09.213Z,6.85
2018-01-26T19:57:36.815Z,7.82
2018-01-26T20:00:05.118Z,8.25
2018-01-26T20:02:32.670Z,7.80
2018-01-26T20:05:18.192Z,8.35
2018-01-26T20:07:54.622Z,7.72
2018-01-26T20:10:22.189Z,7.87
2018-01-26T20:12:55.480Z,8.32
2018-01-26T20:15:23.049Z,7.85
2018-01-26T20:17:50.583Z,8.48
2018-01-26T20:20:18.937Z,8.65
2018-01-26T20:22:46.475Z,9.25
2018-01-26T20:25:14.053Z,11.88
2018-01-26T20:27:41.619Z,11.35
2018-01-26T20:30:09.941Z,12.00
2018-01-26T20:32:37.527Z,9.35
2018-01-26T20:35:05.275Z,8.77
2018-01-26T20:37:32.846Z,10.52
2018-01-26T20:40:00.411Z,10.75
2018-01-26T20:42:27.995Z,9.57
2018-01-26T20:44:55.549Z,7.90
2018-01-26T20:47:23.106Z,8.32
2018-01-26T20:49:51.425Z,7.25
2018-01-26T20:52:18.963Z,7.82
2018-01-26T20:54:47.302Z,7.55
2018-01-26T20:57:14.842Z,26.27
2018-01-26T20:59:42.396Z,11.88
2018-01-26T21:02:10.810Z,10.25
2018-01-26T21:04:38.386Z,8.30
2018-01-26T21:07:05.947Z,6.90
2018-01-26T21:09:33.513Z,6.70
2018-01-26T21:12:01.839Z,8.60
2018-01-26T21:14:29.413Z,12.40
2018-01-26T21:16:56.974Z,12.18
2018-01-26T21:19:24.537Z,10.90
2018-01-26T21:21:52.123Z,10.88
2018-01-26T21:24:19.681Z,10.27
2018-01-26T21:26:48.052Z,8.93
2018-01-26T21:29:15.591Z,8.48
2018-01-26T21:31:43.152Z,8.60
2018-01-26T21:34:10.713Z,8.27
2018-01-26T21:36:38.275Z,8.50
2018-01-26T21:39:07.775Z,8.30
2018-01-26T21:41:35.330Z,7.62
2018-01-26T21:44:02.941Z,8.93
2018-01-26T21:46:31.339Z,7.68
2018-01-26T21:48:58.919Z,8.10
2018-01-26T21:51:26.474Z,8.30
2018-01-26T21:53:54.026Z,6.78
2018-01-26T21:56:21.612Z,7.87
2018-01-26T21:58:49.198Z,7.43
2018-01-26T22:01:17.537Z,7.37
2018-01-26T22:03:45.070Z,8.30
2018-01-26T22:06:18.277Z,7.93
2018-01-26T22:08:45.838Z,9.45
2018-01-26T22:11:13.404Z,8.02
2018-01-26T22:13:40.957Z,7.97
2018-01-26T22:16:08.513Z,6.65
2018-01-26T22:18:36.082Z,8.57
2018-01-26T22:21:03.656Z,8.60
2018-01-26T22:23:31.235Z,9.65
2018-01-26T22:25:58.780Z,9.02
2018-01-26T22:28:26.335Z,8.80
2018-01-26T22:30:53.889Z,9.40
2018-01-26T22:33:21.465Z,10.00
2018-01-26T22:35:49.015Z,10.02
2018-01-26T22:38:16.571Z,7.87
2018-01-26T22:40:44.121Z,9.52
2018-01-26T22:43:11.707Z,9.75
2018-01-26T22:45:39.279Z,10.82
2018-01-26T22:48:07.623Z,9.13
2018-01-26T22:50:35.188Z,9.02
2018-01-26T22:53:02.741Z,9.07
2018-01-26T22:55:30.319Z,9.15
2018-01-26T22:57:57.902Z,10.40
2018-01-26T23:00:25.492Z,13.20
2018-01-26T23:02:53.063Z,13.20
2018-01-26T23:05:20.645Z,12.88
2018-01-26T23:07:48.196Z,11.50
2018-01-26T23:10:15.771Z,11.65
2018-01-26T23:12:43.345Z,11.40
2018-01-26T23:15:10.904Z,12.10
2018-01-26T23:17:38.486Z,10.45
2018-01-26T23:20:06.805Z,10.85
2018-01-26T23:22:34.391Z,11.93
2018-01-26T23:25:01.935Z,10.07
2018-01-26T23:27:29.516Z,11.30
2018-01-26T23:29:57.868Z,10.80
2018-01-26T23:32:25.466Z,10.30
2018-01-26T23:34:53.051Z,9.90
2018-01-26T23:37:21.355Z,9.93
2018-01-26T23:39:48.934Z,9.43
2018-01-26T23:42:16.503Z,10.07
2018-01-26T23:44:44.095Z,9.80
2018-01-26T23:47:12.418Z,9.50
2018-01-26T23:49:39.993Z,11.95
2018-01-26T23:52:07.553Z,11.45
2018-01-26T23:54:35.143Z,13.40
2018-01-26T23:57:02.703Z,12.02
2018-01-26T23:59:30.257Z,11.95
